sensor_id;sensor_type;location;lat;lon;timestamp;P1;durP1;ratioP1;P2;durP2;ratioP2
71562;SDS011;59391;52.504;13.438;2023-01-29T00:00:01;18.60;;;8.75;;
71562;SDS011;59391;52.504;13.438;2023-01-29T00:02:33;12.55;;;6.63;;
71562;SDS011;59391;52.504;13.438;2023-01-29T00:05:03;11.60;;;7.45;;
71562;SDS011;59391;52.504;13.438;2023-01-29T00:07:31;12.37;;;7.17;;
71562;SDS011;59391;52.504;13.438;2023-01-29T00:09:56;14.00;;;8.10;;
71562;SDS011;59391;52.504;13.438;2023-01-29T00:12:22;11.00;;;6.32;;
71562;SDS011;59391;52.504;13.438;2023-01-29T00:14:48;11.80;;;7.13;;
71562;SDS011;59391;52.504;13.438;2023-01-29T00:17:16;10.48;;;6.43;;
71562;SDS011;59391;52.504;13.438;2023-01-29T00:19:42;14.77;;;7.17;;
71562;SDS011;59391;52.504;13.438;2023-01-29T00:22:10;14.55;;;8.02;;
71562;SDS011;59391;52.504;13.438;2023-01-29T00:24:36;16.30;;;8.27;;
71562;SDS011;59391;52.504;13.438;2023-01-29T00:27:02;14.98;;;7.95;;
71562;SDS011;59391;52.504;13.438;2023-01-29T00:29:27;15.27;;;7.63;;
71562;SDS011;59391;52.504;13.438;2023-01-29T00:31:53;15.25;;;9.18;;
71562;SDS011;59391;52.504;13.438;2023-01-29T00:34:19;15.73;;;8.70;;
71562;SDS011;59391;52.504;13.438;2023-01-29T00:36:45;13.75;;;6.05;;
71562;SDS011;59391;52.504;13.438;2023-01-29T00:39:13;16.00;;;7.90;;
71562;SDS011;59391;52.504;13.438;2023-01-29T00:41:39;13.55;;;7.53;;
71562;SDS011;59391;52.504;13.438;2023-01-29T00:44:23;17.58;;;7.50;;
71562;SDS011;59391;52.504;13.438;2023-01-29T00:47:07;13.00;;;6.80;;
71562;SDS011;59391;52.504;13.438;2023-01-29T00:49:52;16.27;;;9.20;;
71562;SDS011;59391;52.504;13.438;2023-01-29T00:52:18;17.70;;;8.75;;
71562;SDS011;59391;52.504;13.438;2023-01-29T00:54:53;18.70;;;8.68;;
71562;SDS011;59391;52.504;13.438;2023-01-29T00:57:24;18.17;;;9.33;;
71562;SDS011;59391;52.504;13.438;2023-01-29T00:59:52;18.77;;;10.35;;
71562;SDS011;59391;52.504;13.438;2023-01-29T01:02:18;20.15;;;10.85;;
71562;SDS011;59391;52.504;13.438;2023-01-29T01:05:03;13.57;;;6.57;;
71562;SDS011;59391;52.504;13.438;2023-01-29T01:07:31;17.63;;;9.47;;
71562;SDS011;59391;52.504;13.438;2023-01-29T01:09:58;19.60;;;10.02;;
71562;SDS011;59391;52.504;13.438;2023-01-29T01:12:45;16.45;;;7.97;;
71562;SDS011;59391;52.504;13.438;2023-01-29T01:15:17;20.90;;;10.63;;
71562;SDS011;59391;52.504;13.438;2023-01-29T01:17:44;20.02;;;10.77;;
71562;SDS011;59391;52.504;13.438;2023-01-29T01:20:11;20.53;;;10.73;;
71562;SDS011;59391;52.504;13.438;2023-01-29T01:22:37;21.30;;;11.02;;
71562;SDS011;59391;52.504;13.438;2023-01-29T01:25:03;16.00;;;8.45;;
71562;SDS011;59391;52.504;13.438;2023-01-29T01:27:29;19.23;;;9.10;;
71562;SDS011;59391;52.504;13.438;2023-01-29T01:29:56;20.88;;;10.45;;
71562;SDS011;59391;52.504;13.438;2023-01-29T01:32:21;23.20;;;11.67;;
71562;SDS011;59391;52.504;13.438;2023-01-29T01:34:47;21.38;;;10.77;;
71562;SDS011;59391;52.504;13.438;2023-01-29T01:37:15;20.80;;;10.57;;
71562;SDS011;59391;52.504;13.438;2023-01-29T01:39:41;23.10;;;11.77;;
71562;SDS011;59391;52.504;13.438;2023-01-29T01:42:12;21.23;;;11.70;;
71562;SDS011;59391;52.504;13.438;2023-01-29T01:47:50;21.50;;;10.73;;
71562;SDS011;59391;52.504;13.438;2023-01-29T01:50:50;23.33;;;11.93;;
71562;SDS011;59391;52.504;13.438;2023-01-29T01:53:21;23.85;;;11.75;;
71562;SDS011;59391;52.504;13.438;2023-01-29T01:56:04;25.02;;;12.23;;
71562;SDS011;59391;52.504;13.438;2023-01-29T01:58:37;18.85;;;9.60;;
71562;SDS011;59391;52.504;13.438;2023-01-29T02:01:09;21.40;;;11.77;;
71562;SDS011;59391;52.504;13.438;2023-01-29T02:03:40;23.33;;;11.87;;
71562;SDS011;59391;52.504;13.438;2023-01-29T02:06:32;20.65;;;10.23;;
71562;SDS011;59391;52.504;13.438;2023-01-29T02:09:22;23.55;;;11.07;;
71562;SDS011;59391;52.504;13.438;2023-01-29T02:12:06;27.20;;;13.18;;
71562;SDS011;59391;52.504;13.438;2023-01-29T02:14:36;23.58;;;12.30;;
71562;SDS011;59391;52.504;13.438;2023-01-29T02:17:05;16.00;;;9.40;;
71562;SDS011;59391;52.504;13.438;2023-01-29T02:19:45;17.48;;;8.52;;
71562;SDS011;59391;52.504;13.438;2023-01-29T02:28:36;19.23;;;9.85;;
71562;SDS011;59391;52.504;13.438;2023-01-29T02:34:19;21.25;;;10.88;;
71562;SDS011;59391;52.504;13.438;2023-01-29T02:37:24;15.75;;;7.85;;
71562;SDS011;59391;52.504;13.438;2023-01-29T02:42:58;15.13;;;8.50;;
71562;SDS011;59391;52.504;13.438;2023-01-29T02:48:54;18.20;;;8.98;;
71562;SDS011;59391;52.504;13.438;2023-01-29T02:51:30;20.00;;;9.68;;
71562;SDS011;59391;52.504;13.438;2023-01-29T02:54:11;21.02;;;11.10;;
71562;SDS011;59391;52.504;13.438;2023-01-29T02:56:50;20.35;;;9.88;;
71562;SDS011;59391;52.504;13.438;2023-01-29T02:59:43;21.27;;;10.37;;
71562;SDS011;59391;52.504;13.438;2023-01-29T03:02:40;17.92;;;9.32;;
71562;SDS011;59391;52.504;13.438;2023-01-29T03:05:41;19.50;;;9.15;;
71562;SDS011;59391;52.504;13.438;2023-01-29T03:08:46;22.67;;;11.15;;
71562;SDS011;59391;52.504;13.438;2023-01-29T03:11:18;20.27;;;9.95;;
71562;SDS011;59391;52.504;13.438;2023-01-29T03:13:58;17.40;;;10.07;;
71562;SDS011;59391;52.504;13.438;2023-01-29T03:16:35;20.95;;;10.25;;
71562;SDS011;59391;52.504;13.438;2023-01-29T03:19:17;21.30;;;10.15;;
71562;SDS011;59391;52.504;13.438;2023-01-29T03:22:00;23.10;;;11.57;;
71562;SDS011;59391;52.504;13.438;2023-01-29T03:24:33;22.98;;;11.57;;
71562;SDS011;59391;52.504;13.438;2023-01-29T03:27:30;20.40;;;11.17;;
71562;SDS011;59391;52.504;13.438;2023-01-29T03:30:23;24.38;;;11.00;;
71562;SDS011;59391;52.504;13.438;2023-01-29T03:33:12;18.88;;;9.30;;
71562;SDS011;59391;52.504;13.438;2023-01-29T03:35:45;22.98;;;11.30;;
71562;SDS011;59391;52.504;13.438;2023-01-29T03:38:25;19.67;;;9.20;;
71562;SDS011;59391;52.504;13.438;2023-01-29T03:43:59;20.75;;;9.88;;
71562;SDS011;59391;52.504;13.438;2023-01-29T03:46:45;21.92;;;10.88;;
71562;SDS011;59391;52.504;13.438;2023-01-29T03:49:31;20.35;;;10.48;;
71562;SDS011;59391;52.504;13.438;2023-01-29T03:52:14;16.40;;;8.23;;
71562;SDS011;59391;52.504;13.438;2023-01-29T03:55:03;16.27;;;7.83;;
71562;SDS011;59391;52.504;13.438;2023-01-29T04:01:10;15.80;;;7.57;;
71562;SDS011;59391;52.504;13.438;2023-01-29T04:03:49;19.02;;;9.07;;
71562;SDS011;59391;52.504;13.438;2023-01-29T04:06:26;21.33;;;11.07;;
71562;SDS011;59391;52.504;13.438;2023-01-29T04:11:42;18.77;;;8.95;;
71562;SDS011;59391;52.504;13.438;2023-01-29T04:14:15;21.98;;;9.60;;
71562;SDS011;59391;52.504;13.438;2023-01-29T04:16:43;24.25;;;12.18;;
71562;SDS011;59391;52.504;13.438;2023-01-29T04:19:15;20.77;;;11.00;;
71562;SDS011;59391;52.504;13.438;2023-01-29T04:21:41;18.47;;;9.40;;
71562;SDS011;59391;52.504;13.438;2023-01-29T04:24:07;20.55;;;10.23;;
71562;SDS011;59391;52.504;13.438;2023-01-29T04:27:01;16.08;;;8.13;;
71562;SDS011;59391;52.504;13.438;2023-01-29T04:29:50;22.35;;;10.82;;
71562;SDS011;59391;52.504;13.438;2023-01-29T04:35:53;25.27;;;12.27;;
71562;SDS011;59391;52.504;13.438;2023-01-29T04:38:43;16.65;;;8.18;;
71562;SDS011;59391;52.504;13.438;2023-01-29T04:41:21;19.90;;;10.18;;
71562;SDS011;59391;52.504;13.438;2023-01-29T04:47:04;22.98;;;10.15;;
71562;SDS011;59391;52.504;13.438;2023-01-29T04:53:11;24.08;;;9.77;;
71562;SDS011;59391;52.504;13.438;2023-01-29T04:55:41;19.95;;;8.95;;
71562;SDS011;59391;52.504;13.438;2023-01-29T04:58:19;19.65;;;9.98;;
71562;SDS011;59391;52.504;13.438;2023-01-29T05:00:52;20.23;;;9.18;;
71562;SDS011;59391;52.504;13.438;2023-01-29T05:03:19;25.83;;;11.77;;
71562;SDS011;59391;52.504;13.438;2023-01-29T05:05:49;23.95;;;11.07;;
71562;SDS011;59391;52.504;13.438;2023-01-29T05:08:18;20.80;;;9.75;;
71562;SDS011;59391;52.504;13.438;2023-01-29T05:10:47;19.38;;;9.30;;
71562;SDS011;59391;52.504;13.438;2023-01-29T05:13:16;23.20;;;11.80;;
71562;SDS011;59391;52.504;13.438;2023-01-29T05:15:56;26.13;;;13.53;;
71562;SDS011;59391;52.504;13.438;2023-01-29T05:18:31;25.70;;;11.10;;
71562;SDS011;59391;52.504;13.438;2023-01-29T05:20:57;26.88;;;12.70;;
71562;SDS011;59391;52.504;13.438;2023-01-29T05:23:28;25.55;;;12.65;;
71562;SDS011;59391;52.504;13.438;2023-01-29T05:25:54;26.98;;;11.82;;
71562;SDS011;59391;52.504;13.438;2023-01-29T05:28:21;29.20;;;14.30;;
71562;SDS011;59391;52.504;13.438;2023-01-29T05:30:49;25.40;;;12.88;;
71562;SDS011;59391;52.504;13.438;2023-01-29T05:33:21;27.75;;;12.38;;
71562;SDS011;59391;52.504;13.438;2023-01-29T05:35:48;27.77;;;13.15;;
71562;SDS011;59391;52.504;13.438;2023-01-29T05:38:15;28.20;;;13.18;;
71562;SDS011;59391;52.504;13.438;2023-01-29T05:40:42;24.80;;;11.23;;
71562;SDS011;59391;52.504;13.438;2023-01-29T05:43:21;27.83;;;12.25;;
71562;SDS011;59391;52.504;13.438;2023-01-29T05:45:52;27.92;;;13.13;;
71562;SDS011;59391;52.504;13.438;2023-01-29T05:48:22;30.00;;;13.95;;
71562;SDS011;59391;52.504;13.438;2023-01-29T05:50:49;27.20;;;12.77;;
71562;SDS011;59391;52.504;13.438;2023-01-29T05:53:15;29.55;;;13.98;;
71562;SDS011;59391;52.504;13.438;2023-01-29T05:55:44;29.67;;;13.65;;
71562;SDS011;59391;52.504;13.438;2023-01-29T05:58:11;26.93;;;13.63;;
71562;SDS011;59391;52.504;13.438;2023-01-29T06:00:38;28.05;;;13.95;;
71562;SDS011;59391;52.504;13.438;2023-01-29T06:03:04;29.23;;;14.10;;
71562;SDS011;59391;52.504;13.438;2023-01-29T06:05:30;28.70;;;13.50;;
71562;SDS011;59391;52.504;13.438;2023-01-29T06:07:55;28.87;;;13.50;;
71562;SDS011;59391;52.504;13.438;2023-01-29T06:10:21;31.77;;;15.63;;
71562;SDS011;59391;52.504;13.438;2023-01-29T06:12:47;28.80;;;13.45;;
71562;SDS011;59391;52.504;13.438;2023-01-29T06:15:13;31.90;;;14.23;;
71562;SDS011;59391;52.504;13.438;2023-01-29T06:17:43;30.20;;;14.55;;
71562;SDS011;59391;52.504;13.438;2023-01-29T06:20:09;31.85;;;14.05;;
71562;SDS011;59391;52.504;13.438;2023-01-29T06:22:35;30.97;;;13.83;;
71562;SDS011;59391;52.504;13.438;2023-01-29T06:25:01;30.98;;;14.35;;
71562;SDS011;59391;52.504;13.438;2023-01-29T06:27:27;26.55;;;12.88;;
71562;SDS011;59391;52.504;13.438;2023-01-29T06:29:53;32.10;;;12.90;;
71562;SDS011;59391;52.504;13.438;2023-01-29T06:32:18;31.03;;;14.10;;
71562;SDS011;59391;52.504;13.438;2023-01-29T06:34:44;31.25;;;13.57;;
71562;SDS011;59391;52.504;13.438;2023-01-29T06:37:09;28.00;;;13.23;;
71562;SDS011;59391;52.504;13.438;2023-01-29T06:39:35;31.93;;;14.47;;
71562;SDS011;59391;52.504;13.438;2023-01-29T06:42:01;31.50;;;13.98;;
71562;SDS011;59391;52.504;13.438;2023-01-29T06:44:26;29.13;;;14.20;;
71562;SDS011;59391;52.504;13.438;2023-01-29T06:46:52;23.00;;;10.25;;
71562;SDS011;59391;52.504;13.438;2023-01-29T06:49:17;31.77;;;14.40;;
71562;SDS011;59391;52.504;13.438;2023-01-29T06:51:44;28.17;;;13.20;;
71562;SDS011;59391;52.504;13.438;2023-01-29T06:54:09;31.13;;;13.63;;
71562;SDS011;59391;52.504;13.438;2023-01-29T06:56:35;25.73;;;12.48;;
71562;SDS011;59391;52.504;13.438;2023-01-29T06:59:01;31.00;;;14.40;;
71562;SDS011;59391;52.504;13.438;2023-01-29T07:01:27;28.65;;;13.93;;
71562;SDS011;59391;52.504;13.438;2023-01-29T07:03:53;28.03;;;12.53;;
71562;SDS011;59391;52.504;13.438;2023-01-29T07:06:18;31.25;;;14.32;;
71562;SDS011;59391;52.504;13.438;2023-01-29T07:08:44;30.63;;;14.33;;
71562;SDS011;59391;52.504;13.438;2023-01-29T07:11:10;28.10;;;12.70;;
71562;SDS011;59391;52.504;13.438;2023-01-29T07:13:36;25.15;;;11.77;;
71562;SDS011;59391;52.504;13.438;2023-01-29T07:16:03;26.70;;;12.80;;
71562;SDS011;59391;52.504;13.438;2023-01-29T07:18:31;30.45;;;14.00;;
71562;SDS011;59391;52.504;13.438;2023-01-29T07:20:56;22.02;;;10.48;;
71562;SDS011;59391;52.504;13.438;2023-01-29T07:23:23;26.02;;;12.18;;
71562;SDS011;59391;52.504;13.438;2023-01-29T07:25:49;28.70;;;13.17;;
71562;SDS011;59391;52.504;13.438;2023-01-29T07:28:16;25.92;;;11.35;;
71562;SDS011;59391;52.504;13.438;2023-01-29T07:30:43;35.75;;;15.93;;
71562;SDS011;59391;52.504;13.438;2023-01-29T07:33:11;31.00;;;12.35;;
71562;SDS011;59391;52.504;13.438;2023-01-29T07:35:38;32.10;;;14.63;;
71562;SDS011;59391;52.504;13.438;2023-01-29T07:38:10;32.70;;;15.70;;
71562;SDS011;59391;52.504;13.438;2023-01-29T07:40:36;33.60;;;15.68;;
71562;SDS011;59391;52.504;13.438;2023-01-29T07:43:03;33.58;;;15.75;;
71562;SDS011;59391;52.504;13.438;2023-01-29T07:45:32;30.17;;;14.47;;
71562;SDS011;59391;52.504;13.438;2023-01-29T07:48:00;34.50;;;15.90;;
71562;SDS011;59391;52.504;13.438;2023-01-29T07:50:29;32.05;;;14.43;;
71562;SDS011;59391;52.504;13.438;2023-01-29T07:52:57;35.97;;;16.33;;
71562;SDS011;59391;52.504;13.438;2023-01-29T07:55:23;23.00;;;10.43;;
71562;SDS011;59391;52.504;13.438;2023-01-29T07:57:55;31.30;;;14.90;;
71562;SDS011;59391;52.504;13.438;2023-01-29T08:00:22;30.05;;;14.18;;
71562;SDS011;59391;52.504;13.438;2023-01-29T08:02:49;28.55;;;12.40;;
71562;SDS011;59391;52.504;13.438;2023-01-29T08:05:14;30.63;;;13.13;;
71562;SDS011;59391;52.504;13.438;2023-01-29T08:07:43;29.30;;;12.75;;
71562;SDS011;59391;52.504;13.438;2023-01-29T08:10:09;29.33;;;13.37;;
71562;SDS011;59391;52.504;13.438;2023-01-29T08:12:35;32.42;;;13.48;;
71562;SDS011;59391;52.504;13.438;2023-01-29T08:15:01;31.83;;;14.50;;
71562;SDS011;59391;52.504;13.438;2023-01-29T08:17:27;29.07;;;11.90;;
71562;SDS011;59391;52.504;13.438;2023-01-29T08:19:52;27.15;;;12.60;;
71562;SDS011;59391;52.504;13.438;2023-01-29T08:22:18;34.03;;;15.87;;
71562;SDS011;59391;52.504;13.438;2023-01-29T08:24:44;31.17;;;14.82;;
71562;SDS011;59391;52.504;13.438;2023-01-29T08:27:09;32.78;;;15.57;;
71562;SDS011;59391;52.504;13.438;2023-01-29T08:29:35;24.87;;;11.13;;
71562;SDS011;59391;52.504;13.438;2023-01-29T08:32:03;33.05;;;15.88;;
71562;SDS011;59391;52.504;13.438;2023-01-29T08:34:35;32.17;;;14.10;;
71562;SDS011;59391;52.504;13.438;2023-01-29T08:37:00;39.27;;;16.23;;
71562;SDS011;59391;52.504;13.438;2023-01-29T08:39:26;32.80;;;14.32;;
71562;SDS011;59391;52.504;13.438;2023-01-29T08:41:52;33.13;;;14.43;;
71562;SDS011;59391;52.504;13.438;2023-01-29T08:44:17;30.70;;;14.18;;
71562;SDS011;59391;52.504;13.438;2023-01-29T08:46:43;34.80;;;13.50;;
71562;SDS011;59391;52.504;13.438;2023-01-29T08:49:08;33.90;;;13.07;;
71562;SDS011;59391;52.504;13.438;2023-01-29T08:51:34;35.10;;;15.43;;
71562;SDS011;59391;52.504;13.438;2023-01-29T08:54:00;29.23;;;12.87;;
71562;SDS011;59391;52.504;13.438;2023-01-29T08:56:25;33.28;;;14.82;;
71562;SDS011;59391;52.504;13.438;2023-01-29T08:58:51;35.50;;;16.67;;
71562;SDS011;59391;52.504;13.438;2023-01-29T09:01:17;35.20;;;16.07;;
71562;SDS011;59391;52.504;13.438;2023-01-29T09:03:42;25.55;;;11.55;;
71562;SDS011;59391;52.504;13.438;2023-01-29T09:06:12;33.37;;;14.13;;
71562;SDS011;59391;52.504;13.438;2023-01-29T09:08:38;22.77;;;10.93;;
71562;SDS011;59391;52.504;13.438;2023-01-29T09:11:04;32.40;;;15.02;;
71562;SDS011;59391;52.504;13.438;2023-01-29T09:13:31;33.83;;;15.10;;
71562;SDS011;59391;52.504;13.438;2023-01-29T09:15:58;35.58;;;15.10;;
71562;SDS011;59391;52.504;13.438;2023-01-29T09:18:25;34.35;;;15.52;;
71562;SDS011;59391;52.504;13.438;2023-01-29T09:20:52;33.65;;;16.13;;
71562;SDS011;59391;52.504;13.438;2023-01-29T09:23:21;46.40;;;20.23;;
71562;SDS011;59391;52.504;13.438;2023-01-29T09:25:47;34.15;;;14.10;;
71562;SDS011;59391;52.504;13.438;2023-01-29T09:28:12;40.40;;;16.48;;
71562;SDS011;59391;52.504;13.438;2023-01-29T09:30:38;35.57;;;14.87;;
71562;SDS011;59391;52.504;13.438;2023-01-29T09:33:04;34.83;;;15.48;;
71562;SDS011;59391;52.504;13.438;2023-01-29T09:35:31;35.47;;;16.40;;
71562;SDS011;59391;52.504;13.438;2023-01-29T09:37:58;37.28;;;15.90;;
71562;SDS011;59391;52.504;13.438;2023-01-29T09:40:25;32.83;;;15.60;;
71562;SDS011;59391;52.504;13.438;2023-01-29T09:46:18;26.55;;;11.02;;
71562;SDS011;59391;52.504;13.438;2023-01-29T09:49:06;30.83;;;13.73;;
71562;SDS011;59391;52.504;13.438;2023-01-29T09:51:57;23.77;;;10.73;;
71562;SDS011;59391;52.504;13.438;2023-01-29T09:54:35;32.15;;;14.57;;
71562;SDS011;59391;52.504;13.438;2023-01-29T09:57:26;28.27;;;12.77;;
71562;SDS011;59391;52.504;13.438;2023-01-29T10:00:05;29.98;;;14.27;;
71562;SDS011;59391;52.504;13.438;2023-01-29T10:05:49;27.40;;;12.65;;
71562;SDS011;59391;52.504;13.438;2023-01-29T10:09:02;29.33;;;13.93;;
71562;SDS011;59391;52.504;13.438;2023-01-29T10:11:58;22.20;;;10.05;;
71562;SDS011;59391;52.504;13.438;2023-01-29T10:18:07;23.07;;;11.67;;
71562;SDS011;59391;52.504;13.438;2023-01-29T10:24:25;27.45;;;12.65;;
71562;SDS011;59391;52.504;13.438;2023-01-29T10:27:20;29.60;;;14.00;;
71562;SDS011;59391;52.504;13.438;2023-01-29T10:29:47;25.30;;;12.25;;
71562;SDS011;59391;52.504;13.438;2023-01-29T10:32:17;25.90;;;12.77;;
71562;SDS011;59391;52.504;13.438;2023-01-29T10:34:56;25.23;;;11.02;;
71562;SDS011;59391;52.504;13.438;2023-01-29T10:37:38;29.05;;;13.70;;
71562;SDS011;59391;52.504;13.438;2023-01-29T10:43:17;20.05;;;9.88;;
71562;SDS011;59391;52.504;13.438;2023-01-29T10:46:07;28.50;;;12.77;;
71562;SDS011;59391;52.504;13.438;2023-01-29T10:52:15;25.88;;;12.38;;
71562;SDS011;59391;52.504;13.438;2023-01-29T10:55:14;25.35;;;12.00;;
71562;SDS011;59391;52.504;13.438;2023-01-29T11:01:14;19.20;;;9.70;;
71562;SDS011;59391;52.504;13.438;2023-01-29T11:03:40;25.30;;;11.60;;
71562;SDS011;59391;52.504;13.438;2023-01-29T11:06:20;21.98;;;10.77;;
71562;SDS011;59391;52.504;13.438;2023-01-29T11:11:49;21.58;;;10.70;;
71562;SDS011;59391;52.504;13.438;2023-01-29T11:17:38;24.13;;;11.68;;
71562;SDS011;59391;52.504;13.438;2023-01-29T11:20:05;25.88;;;12.25;;
71562;SDS011;59391;52.504;13.438;2023-01-29T11:22:53;21.90;;;11.47;;
71562;SDS011;59391;52.504;13.438;2023-01-29T11:25:23;23.30;;;11.68;;
71562;SDS011;59391;52.504;13.438;2023-01-29T11:27:51;22.38;;;11.45;;
71562;SDS011;59391;52.504;13.438;2023-01-29T11:30:33;22.00;;;10.13;;
71562;SDS011;59391;52.504;13.438;2023-01-29T11:33:17;23.30;;;12.45;;
71562;SDS011;59391;52.504;13.438;2023-01-29T11:35:47;20.50;;;9.70;;
71562;SDS011;59391;52.504;13.438;2023-01-29T11:38:20;15.18;;;8.10;;
71562;SDS011;59391;52.504;13.438;2023-01-29T11:40:49;17.83;;;8.43;;
71562;SDS011;59391;52.504;13.438;2023-01-29T11:45:45;14.87;;;7.70;;
71562;SDS011;59391;52.504;13.438;2023-01-29T11:48:19;12.80;;;7.45;;
71562;SDS011;59391;52.504;13.438;2023-01-29T11:50:51;21.73;;;10.85;;
71562;SDS011;59391;52.504;13.438;2023-01-29T11:53:32;16.90;;;7.25;;
71562;SDS011;59391;52.504;13.438;2023-01-29T11:59:25;21.70;;;10.73;;
71562;SDS011;59391;52.504;13.438;2023-01-29T12:05:13;16.05;;;7.97;;
71562;SDS011;59391;52.504;13.438;2023-01-29T12:07:50;15.80;;;7.82;;
71562;SDS011;59391;52.504;13.438;2023-01-29T12:10:28;25.25;;;11.88;;
71562;SDS011;59391;52.504;13.438;2023-01-29T12:13:42;16.57;;;7.50;;
71562;SDS011;59391;52.504;13.438;2023-01-29T12:18:53;21.42;;;8.15;;
71562;SDS011;59391;52.504;13.438;2023-01-29T12:21:45;17.38;;;8.23;;
71562;SDS011;59391;52.504;13.438;2023-01-29T12:29:51;21.88;;;10.60;;
71562;SDS011;59391;52.504;13.438;2023-01-29T12:33:11;21.30;;;10.52;;
71562;SDS011;59391;52.504;13.438;2023-01-29T12:35:23;16.60;;;8.18;;
71562;SDS011;59391;52.504;13.438;2023-01-29T12:38:07;17.48;;;8.60;;
71562;SDS011;59391;52.504;13.438;2023-01-29T12:40:47;20.30;;;9.83;;
71562;SDS011;59391;52.504;13.438;2023-01-29T12:43:21;21.52;;;10.30;;
71562;SDS011;59391;52.504;13.438;2023-01-29T12:45:56;24.35;;;10.85;;
71562;SDS011;59391;52.504;13.438;2023-01-29T12:48:36;24.55;;;11.95;;
71562;SDS011;59391;52.504;13.438;2023-01-29T12:51:07;22.63;;;10.68;;
71562;SDS011;59391;52.504;13.438;2023-01-29T12:56:52;22.08;;;10.73;;
71562;SDS011;59391;52.504;13.438;2023-01-29T12:59:29;24.55;;;11.40;;
71562;SDS011;59391;52.504;13.438;2023-01-29T13:02:20;19.10;;;10.40;;
71562;SDS011;59391;52.504;13.438;2023-01-29T13:05:04;19.90;;;9.85;;
71562;SDS011;59391;52.504;13.438;2023-01-29T13:07:48;21.37;;;10.57;;
71562;SDS011;59391;52.504;13.438;2023-01-29T13:10:24;21.55;;;11.50;;
71562;SDS011;59391;52.504;13.438;2023-01-29T13:13:04;21.63;;;11.43;;
71562;SDS011;59391;52.504;13.438;2023-01-29T13:16:00;17.60;;;7.90;;
71562;SDS011;59391;52.504;13.438;2023-01-29T13:18:44;16.80;;;8.82;;
71562;SDS011;59391;52.504;13.438;2023-01-29T13:21:25;20.67;;;9.53;;
71562;SDS011;59391;52.504;13.438;2023-01-29T13:24:03;23.05;;;11.35;;
71562;SDS011;59391;52.504;13.438;2023-01-29T13:26:38;22.13;;;10.77;;
71562;SDS011;59391;52.504;13.438;2023-01-29T13:29:13;18.58;;;9.10;;
71562;SDS011;59391;52.504;13.438;2023-01-29T13:31:53;19.48;;;9.88;;
71562;SDS011;59391;52.504;13.438;2023-01-29T13:34:27;20.93;;;11.00;;
71562;SDS011;59391;52.504;13.438;2023-01-29T13:37:11;22.80;;;11.45;;
71562;SDS011;59391;52.504;13.438;2023-01-29T13:39:53;22.25;;;10.35;;
71562;SDS011;59391;52.504;13.438;2023-01-29T13:42:35;22.13;;;11.20;;
71562;SDS011;59391;52.504;13.438;2023-01-29T13:45:22;23.30;;;11.45;;
71562;SDS011;59391;52.504;13.438;2023-01-29T13:48:27;28.20;;;12.20;;
71562;SDS011;59391;52.504;13.438;2023-01-29T13:50:59;23.30;;;11.55;;
71562;SDS011;59391;52.504;13.438;2023-01-29T13:53:58;25.20;;;11.02;;
71562;SDS011;59391;52.504;13.438;2023-01-29T13:59:05;23.97;;;11.47;;
71562;SDS011;59391;52.504;13.438;2023-01-29T14:02:17;19.48;;;8.65;;
71562;SDS011;59391;52.504;13.438;2023-01-29T14:04:29;18.65;;;9.07;;
71562;SDS011;59391;52.504;13.438;2023-01-29T14:10:20;24.13;;;12.13;;
71562;SDS011;59391;52.504;13.438;2023-01-29T14:12:55;25.70;;;12.70;;
71562;SDS011;59391;52.504;13.438;2023-01-29T14:15:45;25.30;;;12.52;;
71562;SDS011;59391;52.504;13.438;2023-01-29T14:18:28;20.58;;;10.43;;
71562;SDS011;59391;52.504;13.438;2023-01-29T14:20:59;19.67;;;9.43;;
71562;SDS011;59391;52.504;13.438;2023-01-29T14:29:00;22.17;;;9.90;;
71562;SDS011;59391;52.504;13.438;2023-01-29T14:31:49;20.83;;;9.52;;
71562;SDS011;59391;52.504;13.438;2023-01-29T14:39:46;28.52;;;12.85;;
71562;SDS011;59391;52.504;13.438;2023-01-29T14:42:16;28.38;;;12.55;;
71562;SDS011;59391;52.504;13.438;2023-01-29T14:44:58;29.52;;;14.32;;
71562;SDS011;59391;52.504;13.438;2023-01-29T14:47:53;17.57;;;9.70;;
71562;SDS011;59391;52.504;13.438;2023-01-29T14:53:01;26.73;;;13.10;;
71562;SDS011;59391;52.504;13.438;2023-01-29T14:55:39;29.02;;;13.60;;
71562;SDS011;59391;52.504;13.438;2023-01-29T14:58:12;28.02;;;12.75;;
71562;SDS011;59391;52.504;13.438;2023-01-29T15:00:44;19.70;;;9.83;;
71562;SDS011;59391;52.504;13.438;2023-01-29T15:03:21;25.85;;;11.73;;
71562;SDS011;59391;52.504;13.438;2023-01-29T15:06:04;26.70;;;12.48;;
71562;SDS011;59391;52.504;13.438;2023-01-29T15:08:40;26.40;;;11.98;;
71562;SDS011;59391;52.504;13.438;2023-01-29T15:11:16;27.52;;;13.18;;
71562;SDS011;59391;52.504;13.438;2023-01-29T15:17:14;25.42;;;11.38;;
71562;SDS011;59391;52.504;13.438;2023-01-29T15:19:48;24.40;;;10.90;;
71562;SDS011;59391;52.504;13.438;2023-01-29T15:22:18;27.98;;;13.82;;
71562;SDS011;59391;52.504;13.438;2023-01-29T15:24:47;30.85;;;14.15;;
71562;SDS011;59391;52.504;13.438;2023-01-29T15:27:40;27.10;;;12.00;;
71562;SDS011;59391;52.504;13.438;2023-01-29T15:30:31;30.17;;;13.25;;
71562;SDS011;59391;52.504;13.438;2023-01-29T15:32:57;28.35;;;13.63;;
71562;SDS011;59391;52.504;13.438;2023-01-29T15:35:35;25.48;;;11.40;;
71562;SDS011;59391;52.504;13.438;2023-01-29T15:38:13;22.98;;;10.48;;
71562;SDS011;59391;52.504;13.438;2023-01-29T15:40:51;30.40;;;14.07;;
71562;SDS011;59391;52.504;13.438;2023-01-29T15:43:24;33.85;;;15.93;;
71562;SDS011;59391;52.504;13.438;2023-01-29T15:45:58;26.45;;;12.10;;
71562;SDS011;59391;52.504;13.438;2023-01-29T15:48:36;24.60;;;12.48;;
71562;SDS011;59391;52.504;13.438;2023-01-29T15:51:06;26.35;;;12.55;;
71562;SDS011;59391;52.504;13.438;2023-01-29T15:53:46;27.23;;;13.50;;
71562;SDS011;59391;52.504;13.438;2023-01-29T15:56:25;31.52;;;14.43;;
71562;SDS011;59391;52.504;13.438;2023-01-29T15:59:15;25.13;;;11.95;;
71562;SDS011;59391;52.504;13.438;2023-01-29T16:01:45;21.83;;;11.10;;
71562;SDS011;59391;52.504;13.438;2023-01-29T16:04:12;31.00;;;15.53;;
71562;SDS011;59391;52.504;13.438;2023-01-29T16:06:50;28.23;;;13.45;;
71562;SDS011;59391;52.504;13.438;2023-01-29T16:09:19;27.27;;;11.95;;
71562;SDS011;59391;52.504;13.438;2023-01-29T16:11:49;30.25;;;12.23;;
71562;SDS011;59391;52.504;13.438;2023-01-29T16:14:18;29.45;;;13.10;;
71562;SDS011;59391;52.504;13.438;2023-01-29T16:16:49;28.13;;;13.23;;
71562;SDS011;59391;52.504;13.438;2023-01-29T16:19:20;27.20;;;12.60;;
71562;SDS011;59391;52.504;13.438;2023-01-29T16:21:58;23.33;;;12.90;;
71562;SDS011;59391;52.504;13.438;2023-01-29T16:24:27;28.63;;;14.23;;
71562;SDS011;59391;52.504;13.438;2023-01-29T16:27:00;27.70;;;13.98;;
71562;SDS011;59391;52.504;13.438;2023-01-29T16:29:34;29.70;;;13.13;;
71562;SDS011;59391;52.504;13.438;2023-01-29T16:32:00;25.33;;;11.98;;
71562;SDS011;59391;52.504;13.438;2023-01-29T16:37:06;21.58;;;11.25;;
71562;SDS011;59391;52.504;13.438;2023-01-29T16:39:45;27.87;;;12.00;;
71562;SDS011;59391;52.504;13.438;2023-01-29T16:44:56;36.35;;;16.40;;